createdAt,value
2023-02-24T00:02:00.294Z,20.90
2023-02-24T00:04:33.324Z,20.80
2023-02-24T00:07:02.518Z,20.90
2023-02-24T00:09:33.226Z,21.00
2023-02-24T00:12:04.789Z,20.70
2023-02-24T00:14:34.661Z,20.30
2023-02-24T00:17:08.022Z,20.40
2023-02-24T00:19:38.920Z,20.00
2023-02-24T00:22:09.521Z,20.30
2023-02-24T00:24:38.165Z,20.40
2023-02-24T00:27:11.074Z,20.60
2023-02-24T00:29:40.355Z,20.20
2023-02-24T00:32:12.625Z,20.50
2023-02-24T00:34:43.543Z,20.80
2023-02-24T00:37:12.118Z,20.70
2023-02-24T00:39:41.485Z,20.70
2023-02-24T00:42:12.121Z,20.60
2023-02-24T00:44:45.086Z,20.70
2023-02-24T00:47:14.200Z,20.90
2023-02-24T00:49:44.288Z,21.20
2023-02-24T00:52:14.586Z,21.20
2023-02-24T00:54:47.635Z,20.70
2023-02-24T00:57:21.422Z,21.10
2023-02-24T00:59:51.699Z,21.10
2023-02-24T01:02:20.363Z,21.30
2023-02-24T01:04:51.052Z,21.50
2023-02-24T01:07:19.446Z,21.90
2023-02-24T01:09:51.770Z,21.90
2023-02-24T01:12:40.102Z,22.00
2023-02-24T01:15:12.695Z,22.10
2023-02-24T01:17:41.114Z,21.90
2023-02-24T01:20:18.434Z,21.80
2023-02-24T01:22:48.736Z,22.10
2023-02-24T01:25:20.037Z,21.70
2023-02-24T01:27:48.407Z,21.80
2023-02-24T01:30:18.328Z,21.90
2023-02-24T01:32:48.088Z,22.10
2023-02-24T01:35:18.681Z,22.10
2023-02-24T01:37:46.896Z,22.20
2023-02-24T01:40:21.489Z,22.30
2023-02-24T01:42:50.602Z,22.30
2023-02-24T01:45:29.646Z,22.30
2023-02-24T01:48:01.686Z,22.00
2023-02-24T01:50:34.132Z,21.60
2023-02-24T01:53:05.779Z,21.80
2023-02-24T01:55:36.902Z,21.70
2023-02-24T01:58:09.701Z,21.80
2023-02-24T02:00:38.916Z,21.80
2023-02-24T02:03:15.428Z,21.70
2023-02-24T02:05:48.746Z,22.00
2023-02-24T02:08:19.578Z,22.20
2023-02-24T02:10:48.830Z,21.90
2023-02-24T02:13:24.024Z,22.10
2023-02-24T02:16:02.867Z,22.00
2023-02-24T02:18:42.945Z,22.10
2023-02-24T02:21:56.289Z,22.30
2023-02-24T02:24:35.775Z,22.30
2023-02-24T02:27:30.049Z,22.00
2023-02-24T02:30:28.794Z,22.00
2023-02-24T02:33:33.752Z,22.00
2023-02-24T02:36:14.296Z,22.30
2023-02-24T02:38:52.724Z,22.30
2023-02-24T02:41:28.517Z,22.20
2023-02-24T02:44:07.447Z,22.30
2023-02-24T02:46:42.334Z,22.00
2023-02-24T02:49:19.042Z,21.70
2023-02-24T02:51:52.748Z,21.90
2023-02-24T02:54:28.273Z,22.00
2023-02-24T02:57:03.811Z,22.40
2023-02-24T02:59:35.346Z,22.60
2023-02-24T03:02:14.940Z,22.80
2023-02-24T03:04:51.643Z,23.00
2023-02-24T03:07:31.076Z,23.20
2023-02-24T03:10:04.401Z,23.30
2023-02-24T03:12:37.283Z,23.50
2023-02-24T03:15:11.700Z,23.40
2023-02-24T03:17:45.359Z,23.30
2023-02-24T03:20:22.002Z,23.30
2023-02-24T03:22:57.752Z,23.50
2023-02-24T03:25:30.181Z,23.30
2023-02-24T03:28:05.795Z,23.30
2023-02-24T03:30:41.801Z,23.40
2023-02-24T03:33:16.721Z,23.30
2023-02-24T03:35:46.416Z,23.20
2023-02-24T03:38:19.674Z,23.20
2023-02-24T03:40:48.273Z,23.00
2023-02-24T03:43:27.897Z,23.00
2023-02-24T03:45:57.923Z,22.90
2023-02-24T03:48:27.944Z,22.80
2023-02-24T03:51:00.512Z,22.80
2023-02-24T03:54:01.449Z,22.70
2023-02-24T03:56:40.933Z,22.40
2023-02-24T03:59:23.744Z,22.20
2023-02-24T04:01:58.009Z,22.00
2023-02-24T04:04:37.183Z,22.20
2023-02-24T04:07:19.081Z,22.10
2023-02-24T04:09:59.254Z,22.20
2023-02-24T04:12:31.399Z,22.30
2023-02-24T04:15:10.375Z,22.30
2023-02-24T04:17:44.719Z,22.50
2023-02-24T04:20:18.884Z,22.70
2023-02-24T04:22:54.956Z,22.60
2023-02-24T04:25:27.559Z,22.80
2023-02-24T04:28:00.647Z,22.50
2023-02-24T04:30:35.214Z,22.80
2023-02-24T04:33:04.441Z,22.70
2023-02-24T04:35:33.065Z,22.60
2023-02-24T04:38:02.219Z,22.20
2023-02-24T04:40:33.038Z,22.30
2023-02-24T04:43:01.315Z,21.80
2023-02-24T04:45:31.779Z,22.10
2023-02-24T04:48:02.215Z,22.00
2023-02-24T04:50:33.346Z,22.30
2023-02-24T04:53:08.789Z,22.40
2023-02-24T04:55:40.897Z,22.40
2023-02-24T04:58:12.177Z,22.60
2023-02-24T05:00:41.935Z,22.70
2023-02-24T05:03:13.699Z,22.70
2023-02-24T05:05:51.822Z,22.60
2023-02-24T05:08:22.054Z,22.70
2023-02-24T05:10:52.370Z,22.60
2023-02-24T05:13:26.225Z,22.60
2023-02-24T05:15:56.030Z,22.70
2023-02-24T05:18:24.923Z,22.70
2023-02-24T05:21:12.481Z,22.40
2023-02-24T05:23:44.297Z,22.30
2023-02-24T05:26:16.808Z,22.40
2023-02-24T05:28:49.046Z,22.20
2023-02-24T05:31:19.879Z,22.40
2023-02-24T05:33:50.483Z,22.60
2023-02-24T05:36:20.141Z,22.70
2023-02-24T05:38:56.542Z,22.80
2023-02-24T05:41:32.517Z,22.80
2023-02-24T05:44:04.715Z,22.90
2023-02-24T05:46:34.877Z,22.90
2023-02-24T05:49:08.635Z,23.00
2023-02-24T05:51:39.088Z,23.00
2023-02-24T05:54:09.536Z,23.00
2023-02-24T05:56:45.135Z,23.00
2023-02-24T05:59:18.258Z,23.00
2023-02-24T06:01:46.646Z,22.80
2023-02-24T06:04:27.840Z,22.90
2023-02-24T06:06:56.140Z,22.90
2023-02-24T06:09:24.310Z,22.50
2023-02-24T06:11:53.911Z,22.20
2023-02-24T06:14:22.727Z,22.40
2023-02-24T06:16:51.022Z,22.40
2023-02-24T06:19:20.641Z,22.20
2023-02-24T06:21:49.170Z,22.40
2023-02-24T06:24:18.565Z,22.20
2023-02-24T06:26:46.949Z,22.30
2023-02-24T06:29:18.243Z,22.20
2023-02-24T06:31:48.639Z,22.40
2023-02-24T06:34:18.371Z,22.70
2023-02-24T06:36:47.005Z,22.70
2023-02-24T06:39:16.973Z,22.80
2023-02-24T06:41:52.849Z,22.80
2023-02-24T06:44:24.298Z,22.90
2023-02-24T06:46:52.624Z,23.10
2023-02-24T06:49:21.289Z,23.00
2023-02-24T06:51:50.306Z,23.00
2023-02-24T06:54:19.110Z,22.90
2023-02-24T06:56:47.832Z,23.10
2023-02-24T06:59:21.846Z,23.20
2023-02-24T07:01:53.915Z,23.30
2023-02-24T07:04:28.247Z,23.40
2023-02-24T07:07:03.230Z,23.50
2023-02-24T07:09:33.232Z,23.50
2023-02-24T07:12:02.960Z,23.50
2023-02-24T07:14:32.040Z,23.50
2023-02-24T07:17:01.921Z,23.40
2023-02-24T07:19:32.554Z,23.30
2023-02-24T07:22:03.492Z,23.40
2023-02-24T07:24:37.155Z,23.30
2023-02-24T07:27:07.191Z,23.20
2023-02-24T07:29:37.684Z,23.20
2023-02-24T07:32:09.673Z,22.70
2023-02-24T07:34:40.101Z,22.80
2023-02-24T07:37:09.552Z,22.40
2023-02-24T07:39:43.026Z,22.40
2023-02-24T07:42:13.780Z,22.20
2023-02-24T07:44:48.992Z,21.70
2023-02-24T07:47:19.175Z,22.00
2023-02-24T07:49:51.202Z,21.90
2023-02-24T07:52:19.540Z,21.70
2023-02-24T07:54:50.683Z,21.90
2023-02-24T07:57:19.061Z,21.60
2023-02-24T07:59:50.081Z,21.50
2023-02-24T08:02:19.691Z,21.50
2023-02-24T08:04:51.517Z,21.60
2023-02-24T08:07:25.667Z,21.60
2023-02-24T08:10:24.216Z,21.20
2023-02-24T08:12:55.630Z,21.50
2023-02-24T08:15:25.035Z,20.70
2023-02-24T08:18:02.466Z,20.60
2023-02-24T08:20:51.300Z,20.40
2023-02-24T08:23:19.731Z,21.10
2023-02-24T08:25:47.956Z,21.70
2023-02-24T08:28:16.300Z,22.00
2023-02-24T08:30:46.499Z,22.20
2023-02-24T08:33:21.195Z,22.20
2023-02-24T08:35:57.913Z,22.10
2023-02-24T08:38:28.429Z,22.60
2023-02-24T08:40:59.290Z,22.50
2023-02-24T08:43:33.406Z,22.30
2023-02-24T08:46:18.360Z,22.00
2023-02-24T08:48:49.977Z,22.60
2023-02-24T08:51:22.821Z,22.70
2023-02-24T08:53:53.717Z,22.10
2023-02-24T08:56:27.577Z,21.80
2023-02-24T08:58:58.490Z,21.30
2023-02-24T09:01:34.639Z,21.10
2023-02-24T09:04:07.502Z,21.20
2023-02-24T09:06:39.734Z,21.10
2023-02-24T09:09:22.464Z,21.20
2023-02-24T09:11:56.090Z,20.80
2023-02-24T09:14:28.753Z,20.30
2023-02-24T09:17:06.180Z,20.30
2023-02-24T09:19:58.017Z,20.20
2023-02-24T09:22:40.865Z,20.10
2023-02-24T09:25:23.949Z,20.70
2023-02-24T09:27:55.750Z,20.50
2023-02-24T09:30:39.287Z,20.80
2023-02-24T09:33:21.133Z,20.90
2023-02-24T09:36:10.759Z,21.10
2023-02-24T09:38:58.338Z,21.20
2023-02-24T09:41:34.065Z,20.90
2023-02-24T09:44:07.843Z,21.10
2023-02-24T09:46:42.315Z,20.40
2023-02-24T09:49:18.014Z,20.80
2023-02-24T09:51:56.735Z,20.20
2023-02-24T09:54:31.788Z,20.30
2023-02-24T09:57:09.252Z,20.00
2023-02-24T10:00:00.893Z,19.60
2023-02-24T10:02:44.333Z,19.10
2023-02-24T10:05:27.264Z,19.40
2023-02-24T10:07:59.214Z,18.90
2023-02-24T10:10:38.856Z,18.90
2023-02-24T10:13:15.321Z,18.80
2023-02-24T10:15:58.993Z,18.90
2023-02-24T10:18:34.110Z,18.30
2023-02-24T10:21:18.164Z,18.10
2023-02-24T10:24:01.780Z,18.50
2023-02-24T10:26:51.298Z,18.50
2023-02-24T10:29:34.531Z,18.50
2023-02-24T10:32:23.475Z,18.10
2023-02-24T10:34:54.782Z,18.10
2023-02-24T10:37:29.501Z,17.90
2023-02-24T10:40:09.777Z,18.40
2023-02-24T10:42:45.760Z,18.90
2023-02-24T10:45:18.287Z,19.20
2023-02-24T10:47:56.675Z,19.90
2023-02-24T10:50:29.781Z,20.00
2023-02-24T10:53:26.512Z,20.30
2023-02-24T10:56:23.422Z,20.00
2023-02-24T10:59:20.562Z,19.40
2023-02-24T11:01:59.210Z,19.10
2023-02-24T11:04:53.830Z,19.20
2023-02-24T11:07:33.357Z,19.70
2023-02-24T11:10:12.081Z,19.50
2023-02-24T11:13:10.660Z,19.20
2023-02-24T11:16:00.874Z,19.30
2023-02-24T11:18:31.071Z,19.50
2023-02-24T11:21:02.136Z,19.60
2023-02-24T11:23:35.657Z,19.30
2023-02-24T11:26:08.264Z,18.90
2023-02-24T11:28:59.519Z,19.30
2023-02-24T11:31:45.933Z,19.70
2023-02-24T11:34:24.585Z,19.70
2023-02-24T11:37:02.728Z,19.70
2023-02-24T11:39:53.530Z,19.70
2023-02-24T11:42:28.047Z,19.70
2023-02-24T11:45:06.577Z,19.50
2023-02-24T11:47:39.881Z,19.50
2023-02-24T11:50:24.895Z,19.70
2023-02-24T11:52:55.405Z,19.80
2023-02-24T11:55:34.999Z,20.30
2023-02-24T11:58:08.492Z,20.70
2023-02-24T12:00:43.164Z,20.30
2023-02-24T12:03:19.290Z,20.10
2023-02-24T12:05:53.746Z,20.10
2023-02-24T12:08:29.263Z,20.00
2023-02-24T12:11:07.025Z,19.90
2023-02-24T12:13:41.269Z,19.30
2023-02-24T12:16:18.459Z,19.20
2023-02-24T12:18:51.458Z,19.20
2023-02-24T12:21:25.158Z,19.70
2023-02-24T12:23:54.636Z,19.50
2023-02-24T12:26:27.249Z,19.20
2023-02-24T12:29:30.139Z,19.10
2023-02-24T12:32:10.790Z,18.90
2023-02-24T12:34:49.958Z,18.60
2023-02-24T12:37:30.824Z,18.40
2023-02-24T12:40:13.737Z,18.30
2023-02-24T12:42:52.545Z,18.30
2023-02-24T12:45:27.660Z,18.60
2023-02-24T12:48:08.045Z,19.10
2023-02-24T12:50:46.805Z,19.30
2023-02-24T12:53:21.618Z,19.30
2023-02-24T12:55:59.177Z,19.10
2023-02-24T12:58:30.144Z,19.30
2023-02-24T13:01:10.318Z,19.50
2023-02-24T13:03:58.905Z,19.70
2023-02-24T13:06:35.338Z,19.40
2023-02-24T13:09:12.552Z,20.00
2023-02-24T13:11:47.187Z,19.80
2023-02-24T13:14:22.264Z,19.30
2023-02-24T13:16:51.517Z,19.20
2023-02-24T13:19:29.016Z,19.40
2023-02-24T13:22:01.928Z,19.40
2023-02-24T13:24:30.550Z,19.00
2023-02-24T13:27:20.368Z,19.10
2023-02-24T13:29:50.845Z,19.30
2023-02-24T13:32:29.587Z,19.50
2023-02-24T13:35:01.196Z,19.30
2023-02-24T13:37:32.245Z,19.20
2023-02-24T13:40:00.436Z,19.50
2023-02-24T13:42:30.587Z,19.60
2023-02-24T13:45:06.267Z,19.90
2023-02-24T13:48:13.058Z,20.00
2023-02-24T13:51:11.432Z,19.90
2023-02-24T13:53:58.782Z,20.00
2023-02-24T13:56:39.225Z,19.80
2023-02-24T13:59:21.798Z,19.90
2023-02-24T14:01:52.514Z,19.30
2023-02-24T14:04:27.841Z,20.00
2023-02-24T14:07:03.153Z,20.50
2023-02-24T14:09:35.057Z,20.60
2023-02-24T14:12:08.277Z,21.20
2023-02-24T14:14:36.797Z,21.10
2023-02-24T14:17:09.571Z,21.50
2023-02-24T14:19:37.798Z,21.70
2023-02-24T14:22:07.390Z,22.10
2023-02-24T14:24:35.548Z,22.70
2023-02-24T14:27:05.471Z,23.00
2023-02-24T14:29:44.067Z,23.50
2023-02-24T14:32:22.099Z,23.90
2023-02-24T14:34:50.803Z,24.20
2023-02-24T14:37:25.955Z,24.50
2023-02-24T14:39:56.756Z,24.60
2023-02-24T14:42:25.647Z,24.80
2023-02-24T14:44:55.966Z,24.70
2023-02-24T14:47:26.025Z,24.50
2023-02-24T14:49:56.900Z,24.80
2023-02-24T14:52:33.182Z,24.60
2023-02-24T14:55:06.378Z,24.00
2023-02-24T14:57:39.637Z,23.50
2023-02-24T15:00:17.355Z,22.80
2023-02-24T15:02:51.623Z,22.80
2023-02-24T15:05:20.192Z,22.50
2023-02-24T15:07:51.786Z,22.90
2023-02-24T15:10:26.402Z,23.00
2023-02-24T15:13:00.719Z,23.00
2023-02-24T15:15:34.157Z,22.80
2023-02-24T15:18:10.476Z,22.70
2023-02-24T15:20:41.985Z,23.10
2023-02-24T15:23:27.242Z,22.80
2023-02-24T15:25:55.592Z,22.40
2023-02-24T15:28:26.766Z,22.50
2023-02-24T15:31:02.812Z,22.60
2023-02-24T15:33:36.308Z,22.80
2023-02-24T15:36:11.209Z,22.50
2023-02-24T15:38:43.763Z,22.00
2023-02-24T15:41:13.498Z,21.90
2023-02-24T15:43:47.756Z,21.50
2023-02-24T15:46:25.175Z,21.20
2023-02-24T15:48:55.547Z,21.00
2023-02-24T15:51:34.966Z,21.00
2023-02-24T15:54:06.998Z,21.10
2023-02-24T15:56:36.491Z,20.90
2023-02-24T15:59:06.000Z,21.40
2023-02-24T16:01:34.929Z,21.30
2023-02-24T16:04:04.669Z,21.90
2023-02-24T16:06:33.959Z,22.30
2023-02-24T16:09:05.234Z,22.40
2023-02-24T16:11:42.050Z,22.70
2023-02-24T16:14:13.980Z,23.00
2023-02-24T16:16:42.419Z,23.10
2023-02-24T16:19:14.546Z,23.30
2023-02-24T16:21:42.997Z,23.20
2023-02-24T16:24:12.250Z,23.40
2023-02-24T16:26:44.191Z,23.60
2023-02-24T16:29:16.309Z,23.70
2023-02-24T16:31:44.765Z,23.60
2023-02-24T16:34:16.542Z,23.60
2023-02-24T16:36:44.961Z,23.70
2023-02-24T16:39:14.939Z,23.80
2023-02-24T16:41:44.602Z,23.60
2023-02-24T16:44:14.210Z,23.70
2023-02-24T16:46:46.166Z,23.90
2023-02-24T16:49:19.486Z,24.00
2023-02-24T16:51:50.477Z,23.90
2023-02-24T16:54:21.820Z,24.00
2023-02-24T16:56:52.691Z,23.70
2023-02-24T16:59:21.169Z,23.10
2023-02-24T17:01:49.606Z,23.00
2023-02-24T17:04:18.114Z,23.30
2023-02-24T17:06:46.438Z,23.50
2023-02-24T17:09:15.654Z,23.60
2023-02-24T17:11:44.508Z,23.50
2023-02-24T17:14:17.164Z,23.50
2023-02-24T17:16:48.418Z,23.60
2023-02-24T17:19:17.744Z,23.60
2023-02-24T17:21:46.953Z,23.70
2023-02-24T17:24:17.470Z,23.70
2023-02-24T17:26:48.766Z,23.80
2023-02-24T17:29:20.325Z,23.40
2023-02-24T17:31:48.662Z,23.80
2023-02-24T17:34:16.962Z,23.70
2023-02-24T17:36:47.223Z,23.80
2023-02-24T17:39:15.529Z,23.90
2023-02-24T17:41:43.682Z,23.80
2023-02-24T17:44:11.867Z,23.90
2023-02-24T17:46:41.494Z,23.80
2023-02-24T17:49:10.059Z,23.80
2023-02-24T17:51:38.244Z,23.70
2023-02-24T17:54:06.789Z,23.50
2023-02-24T17:56:35.110Z,23.70
2023-02-24T17:59:03.287Z,23.50
2023-02-24T18:01:31.595Z,23.50
2023-02-24T18:04:01.244Z,23.40
2023-02-24T18:06:29.564Z,23.30
2023-02-24T18:08:57.734Z,23.30
2023-02-24T18:11:25.954Z,23.00
2023-02-24T18:13:55.197Z,23.20
2023-02-24T18:16:23.886Z,23.40
2023-02-24T18:18:52.821Z,23.30
2023-02-24T18:21:24.024Z,23.10
2023-02-24T18:23:55.026Z,23.30
2023-02-24T18:26:25.582Z,22.70
2023-02-24T18:28:54.438Z,23.00
2023-02-24T18:31:25.377Z,22.70
2023-02-24T18:33:54.083Z,22.40
2023-02-24T18:36:24.306Z,21.80
2023-02-24T18:38:54.988Z,21.30
2023-02-24T18:41:24.369Z,20.80
2023-02-24T18:43:54.468Z,21.10
2023-02-24T18:46:29.425Z,20.70
2023-02-24T18:49:00.824Z,20.80
2023-02-24T18:51:30.718Z,21.30
2023-02-24T18:54:04.626Z,21.80
2023-02-24T18:56:35.669Z,22.10
2023-02-24T18:59:07.624Z,22.20
2023-02-24T19:01:39.603Z,22.50
2023-02-24T19:04:10.818Z,22.80
2023-02-24T19:06:41.525Z,22.90
2023-02-24T19:09:12.244Z,22.90
2023-02-24T19:11:43.611Z,22.90
2023-02-24T19:14:13.876Z,23.00
2023-02-24T19:16:42.845Z,23.10
2023-02-24T19:19:15.130Z,23.00
2023-02-24T19:21:45.898Z,23.00
2023-02-24T19:24:16.421Z,22.90
2023-02-24T19:26:47.386Z,23.00
2023-02-24T19:29:16.311Z,22.70
2023-02-24T19:31:45.733Z,22.70
2023-02-24T19:34:15.737Z,22.40
2023-02-24T19:36:45.306Z,22.30
2023-02-24T19:39:15.394Z,21.80
2023-02-24T19:41:43.623Z,21.70
2023-02-24T19:44:12.052Z,22.20
2023-02-24T19:46:41.461Z,21.80
2023-02-24T19:49:09.658Z,21.70
2023-02-24T19:51:38.174Z,21.80
2023-02-24T19:54:08.823Z,21.10
2023-02-24T19:56:37.755Z,21.30
2023-02-24T19:59:11.203Z,21.40
2023-02-24T20:01:39.469Z,21.10
2023-02-24T20:04:08.433Z,21.70
2023-02-24T20:06:38.255Z,21.90
2023-02-24T20:09:09.835Z,21.50
2023-02-24T20:11:40.530Z,20.80
2023-02-24T20:14:10.418Z,20.80
2023-02-24T20:16:38.963Z,20.90
2023-02-24T20:19:09.363Z,21.20
2023-02-24T20:21:38.510Z,21.30
2023-02-24T20:24:13.230Z,20.80
2023-02-24T20:26:50.067Z,21.10
2023-02-24T20:29:20.623Z,21.40
2023-02-24T20:31:49.781Z,21.60
2023-02-24T20:34:18.196Z,21.90
2023-02-24T20:36:54.054Z,21.90
2023-02-24T20:39:25.179Z,22.00
2023-02-24T20:41:55.800Z,22.10
2023-02-24T20:44:24.610Z,22.00
2023-02-24T20:46:52.910Z,21.80
2023-02-24T20:49:21.216Z,22.00
2023-02-24T20:51:49.703Z,22.10
2023-02-24T20:54:18.254Z,21.90
2023-02-24T20:56:48.540Z,21.60
2023-02-24T20:59:19.117Z,21.70
2023-02-24T21:01:48.970Z,21.70
2023-02-24T21:04:20.118Z,21.50
2023-02-24T21:06:48.956Z,21.30
2023-02-24T21:09:17.525Z,21.10
2023-02-24T21:11:47.178Z,21.30
2023-02-24T21:14:16.898Z,20.60
2023-02-24T21:16:46.817Z,20.70
2023-02-24T21:19:15.122Z,21.20
2023-02-24T21:21:43.311Z,21.10
2023-02-24T21:24:11.561Z,20.80
2023-02-24T21:26:39.750Z,21.10
2023-02-24T21:29:09.530Z,20.90
2023-02-24T21:31:37.942Z,21.30
2023-02-24T21:34:06.896Z,21.20
2023-02-24T21:36:35.073Z,21.50
2023-02-24T21:39:05.153Z,21.60
2023-02-24T21:41:35.552Z,21.70
2023-02-24T21:44:03.882Z,21.60
2023-02-24T21:46:33.501Z,21.60
2023-02-24T21:49:01.884Z,21.30
2023-02-24T21:51:30.405Z,21.60
2023-02-24T21:53:58.951Z,21.60
2023-02-24T21:56:29.150Z,21.40
2023-02-24T21:59:02.111Z,21.00
2023-02-24T22:01:36.567Z,21.30
2023-02-24T22:04:07.831Z,21.10
2023-02-24T22:06:37.950Z,21.20
2023-02-24T22:09:08.078Z,21.60
2023-02-24T22:11:38.077Z,21.00
2023-02-24T22:14:09.274Z,21.20
2023-02-24T22:16:39.497Z,21.70
2023-02-24T22:19:08.359Z,21.60
2023-02-24T22:21:39.557Z,21.60
2023-02-24T22:24:09.299Z,21.10
2023-02-24T22:26:37.606Z,20.40
2023-02-24T22:29:08.930Z,20.50
2023-02-24T22:31:39.543Z,21.00
2023-02-24T22:34:08.812Z,20.10
2023-02-24T22:36:37.768Z,20.40
2023-02-24T22:39:07.195Z,19.40
2023-02-24T22:41:38.163Z,18.70
2023-02-24T22:44:07.285Z,18.30
2023-02-24T22:46:40.198Z,18.80
2023-02-24T22:49:08.471Z,18.10
2023-02-24T22:51:37.048Z,17.80
2023-02-24T22:54:09.038Z,18.10
2023-02-24T22:56:37.844Z,18.10
2023-02-24T22:59:06.078Z,18.10
2023-02-24T23:01:36.334Z,18.00
2023-02-24T23:04:09.181Z,18.50
2023-02-24T23:06:37.796Z,19.00
2023-02-24T23:09:07.541Z,19.40
2023-02-24T23:11:38.616Z,20.20
2023-02-24T23:14:09.919Z,20.70
2023-02-24T23:16:39.196Z,21.20
2023-02-24T23:19:12.879Z,21.50
2023-02-24T23:21:43.007Z,21.90
2023-02-24T23:24:13.844Z,22.10
2023-02-24T23:26:45.644Z,21.60
2023-02-24T23:29:15.968Z,20.90
2023-02-24T23:31:45.714Z,21.00
2023-02-24T23:34:15.973Z,20.00
2023-02-24T23:36:47.846Z,18.40
2023-02-24T23:39:20.373Z,17.30
2023-02-24T23:41:49.436Z,16.60
2023-02-24T23:44:17.706Z,16.10
2023-02-24T23:46:46.591Z,15.70
2023-02-24T23:49:16.214Z,15.80
2023-02-24T23:51:48.990Z,15.90
2023-02-24T23:54:17.958Z,16.30
2023-02-24T23:56:49.722Z,16.50
2023-02-24T23:59:17.920Z,16.50
